Time;durP1;ratioP1;P1;durP2;ratioP2;P2;SDS_P1;SDS_P2;PMS_P1;PMS_P2;Temp;Humidity;BMP_temperature;BMP_pressure;BME280_temperature;BME280_humidity;BME280_pressure;Samples;Min_cycle;Max_cycle;Signal;HPM_P1;HPM_P2
2022/11/11 00:06:09;;;;;;;9.82;4.03;;;11.00;99.90;;;;;;20804396;28;20202;-37
2022/11/11 00:16:15;;;;;;;7.10;4.70;;;10.90;99.90;;;;;;20811197;28;20040;-38
2022/11/11 00:26:16;;;;;;;8.70;4.63;;;10.90;99.90;;;;;;20810348;28;20429;-37
2022/11/11 00:36:18;;;;;;;10.00;4.75;;;10.90;99.90;;;;;;20810803;28;20045;-37
2022/11/11 00:56:38;;;;;;;8.95;5.93;;;10.90;99.90;;;;;;20804782;28;20778;-37
2022/11/11 01:06:39;;;;;;;17.38;5.93;;;11.00;99.90;;;;;;20809625;28;20135;-37
2022/11/11 01:16:40;;;;;;;18.02;6.60;;;10.90;99.90;;;;;;20806227;28;20112;-37
2022/11/11 01:26:41;;;;;;;9.93;4.97;;;10.90;99.90;;;;;;20795909;28;20072;-38
2022/11/11 01:36:42;;;;;;;9.88;5.35;;;10.80;99.90;;;;;;20808731;28;20216;-38
2022/11/11 01:46:58;;;;;;;8.93;4.32;;;10.70;99.90;;;;;;20813425;28;20053;-38
2022/11/11 01:57:18;;;;;;;9.32;5.43;;;10.80;99.90;;;;;;20806393;28;20158;-38
2022/11/11 02:07:21;;;;;;;15.52;7.95;;;10.70;99.90;;;;;;20811488;28;20575;-37
2022/11/11 02:17:24;;;;;;;15.73;8.77;;;10.70;99.90;;;;;;20798981;28;20513;-37
2022/11/11 02:27:28;;;;;;;13.13;7.60;;;10.60;99.90;;;;;;20802363;28;20519;-38
2022/11/11 02:37:29;;;;;;;12.52;7.68;;;10.50;99.90;;;;;;20796277;28;20133;-37
2022/11/11 02:47:30;;;;;;;10.40;6.07;;;10.30;99.90;;;;;;20801555;28;20060;-38
2022/11/11 02:57:31;;;;;;;13.68;7.38;;;10.30;99.90;;;;;;20803721;28;20045;-37
2022/11/11 03:07:32;;;;;;;11.25;6.90;;;10.30;99.90;;;;;;20805376;28;20076;-38
2022/11/11 03:17:40;;;;;;;11.68;6.65;;;10.30;99.90;;;;;;20795274;28;20056;-38
2022/11/11 03:27:41;;;;;;;15.77;6.80;;;10.30;99.90;;;;;;20800806;28;20910;-38
2022/11/11 03:48:02;;;;;;;13.15;6.50;;;10.20;99.90;;;;;;20811725;28;20124;-37
2022/11/11 03:58:03;;;;;;;12.63;6.35;;;10.10;99.90;;;;;;20818895;28;20075;-37
2022/11/11 04:21:42;;;;;;;12.85;7.18;;;10.00;99.90;;;;;;20819783;28;20096;-37
2022/11/11 04:49:24;;;;;;;16.15;7.75;;;10.10;99.90;;;;;;20818890;28;20087;-37
2022/11/11 04:59:25;;;;;;;13.30;7.50;;;10.20;99.90;;;;;;20806605;28;20092;-37
2022/11/11 05:09:26;;;;;;;31.60;8.10;;;10.10;99.90;;;;;;20792776;28;20060;-36
2022/11/11 05:29:58;;;;;;;10.43;6.35;;;9.90;99.90;;;;;;20756967;28;20891;-36
2022/11/11 05:39:59;;;;;;;13.65;6.57;;;9.70;99.90;;;;;;20810610;28;20132;-37
2022/11/11 05:50:00;;;;;;;12.20;5.30;;;9.60;99.90;;;;;;20828196;28;20570;-37
2022/11/11 06:00:02;;;;;;;12.68;6.53;;;9.60;99.90;;;;;;20809653;28;20092;-36
2022/11/11 06:20:23;;;;;;;11.45;5.63;;;9.60;99.90;;;;;;20789680;28;20080;-37
2022/11/11 06:30:24;;;;;;;12.25;7.05;;;9.70;99.90;;;;;;20805952;28;20094;-36
2022/11/11 06:40:25;;;;;;;8.77;5.60;;;9.70;99.90;;;;;;20796203;28;20036;-37
2022/11/11 06:50:27;;;;;;;7.60;4.65;;;9.80;99.90;;;;;;20811675;28;20068;-37
2022/11/11 07:00:28;;;;;;;12.52;6.70;;;9.80;99.90;;;;;;20804929;28;20071;-37
2022/11/11 07:10:30;;;;;;;9.63;4.70;;;9.80;99.90;;;;;;20798736;28;20049;-37
2022/11/11 07:20:32;;;;;;;10.02;5.10;;;9.90;99.90;;;;;;20790882;28;20339;-37
2022/11/11 07:30:33;;;;;;;9.52;5.45;;;9.70;99.90;;;;;;20800527;28;20614;-36
2022/11/11 07:40:34;;;;;;;12.10;6.57;;;9.70;99.90;;;;;;20794734;28;20500;-37
2022/11/11 07:50:35;;;;;;;14.77;6.07;;;9.60;99.90;;;;;;20795302;28;20042;-37
2022/11/11 08:00:36;;;;;;;18.08;6.68;;;9.70;99.90;;;;;;20794965;28;20061;-37
2022/11/11 08:10:37;;;;;;;11.10;6.50;;;9.70;99.90;;;;;;20789082;28;20049;-37
2022/11/11 08:20:38;;;;;;;8.70;5.25;;;9.80;99.90;;;;;;20801668;28;20091;-37
2022/11/11 08:30:39;;;;;;;11.55;5.65;;;9.70;99.90;;;;;;20806681;28;20597;-37
2022/11/11 08:40:40;;;;;;;10.85;4.90;;;9.70;99.90;;;;;;20814011;28;20041;-36
2022/11/11 08:50:41;;;;;;;10.82;5.82;;;9.70;99.90;;;;;;20805492;28;20044;-37
2022/11/11 09:00:42;;;;;;;11.32;6.88;;;9.80;99.90;;;;;;20849395;28;20038;-37
2022/11/11 09:10:43;;;;;;;9.98;5.63;;;9.90;99.90;;;;;;20827833;28;20073;-37
2022/11/11 09:20:44;;;;;;;8.30;5.43;;;10.00;99.90;;;;;;20802273;28;20155;-37
2022/11/11 09:30:45;;;;;;;13.90;7.25;;;10.00;99.90;;;;;;20797297;28;20134;-37
2022/11/11 09:40:58;;;;;;;9.38;5.65;;;10.10;99.90;;;;;;20815339;28;20897;-37
2022/11/11 09:51:03;;;;;;;18.80;7.82;;;10.30;99.90;;;;;;20795807;28;20683;-37
2022/11/11 10:01:17;;;;;;;12.38;6.57;;;10.20;99.90;;;;;;20799763;28;20782;-37
2022/11/11 10:11:28;;;;;;;10.15;5.40;;;10.30;99.90;;;;;;20816541;28;20520;-37
2022/11/11 10:21:53;;;;;;;10.35;5.78;;;10.30;99.90;;;;;;20797199;28;20057;-37
2022/11/11 10:32:02;;;;;;;12.20;6.20;;;10.30;99.90;;;;;;20799205;28;21672;-37
2022/11/11 10:42:03;;;;;;;13.63;6.47;;;10.40;99.90;;;;;;20791016;28;20194;-37
2022/11/11 10:52:24;;;;;;;11.05;6.60;;;10.50;99.90;;;;;;20795122;28;20160;-37
2022/11/11 11:02:44;;;;;;;12.95;6.97;;;10.60;99.90;;;;;;20794440;28;20078;-37
2022/11/11 11:12:51;;;;;;;12.52;6.93;;;10.60;99.90;;;;;;20823877;28;20394;-37
2022/11/11 11:22:58;;;;;;;10.33;4.83;;;10.80;99.90;;;;;;20829410;28;20538;-37
2022/11/11 11:33:01;;;;;;;16.08;6.57;;;10.80;99.90;;;;;;20832820;28;20436;-37
2022/11/11 11:43:30;;;;;;;10.75;7.03;;;11.00;99.90;;;;;;20787666;28;20531;-37
2022/11/11 11:53:46;;;;;;;9.68;6.15;;;10.90;99.90;;;;;;20791559;28;20186;-38
2022/11/11 12:04:14;;;;;;;15.73;7.03;;;11.00;99.90;;;;;;20788631;28;20671;-38
2022/11/11 12:14:57;;;;;;;11.47;5.10;;;11.10;99.90;;;;;;20787284;28;20140;-38
2022/11/11 12:25:24;;;;;;;9.57;4.70;;;11.30;99.90;;;;;;20751585;28;21324;-38
2022/11/11 12:35:32;;;;;;;6.60;4.10;;;11.80;99.90;;;;;;20799985;28;20064;-38
2022/11/11 12:46:00;;;;;;;17.15;4.20;;;12.20;99.90;;;;;;20793866;28;20148;-37
2022/11/11 12:56:13;;;;;;;9.10;2.78;;;12.70;99.90;;;;;;20772110;28;20687;-37
2022/11/11 13:06:36;;;;;;;8.07;4.05;;;13.40;99.90;;;;;;20780919;28;20510;-36
2022/11/11 13:16:37;;;;;;;7.18;2.53;;;13.70;99.90;;;;;;20770566;28;20579;-37
2022/11/11 13:26:59;;;;;;;5.35;2.22;;;13.90;99.90;;;;;;20764864;28;20456;-37
2022/11/11 13:37:05;;;;;;;4.82;2.20;;;13.70;99.90;;;;;;20785552;28;20937;-37
2022/11/11 13:47:15;;;;;;;4.57;2.35;;;13.60;99.90;;;;;;20810431;28;20148;-37
2022/11/11 13:57:23;;;;;;;4.53;2.17;;;13.40;99.90;;;;;;20778750;28;20029;-37
2022/11/11 14:07:43;;;;;;;4.10;2.30;;;13.20;99.90;;;;;;20791466;28;20136;-37
2022/11/11 14:17:44;;;;;;;3.10;1.08;;;13.10;99.90;;;;;;20788854;28;21031;-38
2022/11/11 14:27:46;;;;;;;4.03;1.48;;;13.10;99.90;;;;;;20803724;28;20121;-38
2022/11/11 14:38:13;;;;;;;3.28;1.67;;;13.20;99.90;;;;;;20800675;28;20158;-38
2022/11/11 14:48:55;;;;;;;6.97;2.27;;;13.10;99.90;;;;;;20776408;28;20073;-38
2022/11/11 14:59:06;;;;;;;5.45;1.83;;;13.00;99.90;;;;;;20685185;28;21907;-38
2022/11/11 15:09:26;;;;;;;3.13;1.48;;;12.70;99.90;;;;;;20785007;28;20119;-38
2022/11/11 15:19:36;;;;;;;2.83;1.38;;;12.60;99.90;;;;;;20805508;28;20068;-37
2022/11/11 15:29:46;;;;;;;3.58;1.40;;;12.40;99.90;;;;;;20808223;28;20536;-37
2022/11/11 15:39:51;;;;;;;4.30;1.63;;;12.20;99.90;;;;;;20792817;28;22013;-38
2022/11/11 15:49:52;;;;;;;4.47;2.17;;;12.10;99.90;;;;;;20802784;28;20136;-38
2022/11/11 15:59:58;;;;;;;6.53;3.00;;;12.00;99.90;;;;;;20805933;28;20089;-38
2022/11/11 16:10:27;;;;;;;4.00;2.80;;;11.80;99.90;;;;;;20790758;28;20040;-38
2022/11/11 16:20:36;;;;;;;5.10;1.98;;;11.60;99.90;;;;;;20761773;28;20041;-38
2022/11/11 16:30:37;;;;;;;7.85;2.83;;;11.40;99.90;;;;;;20783225;28;20506;-38
2022/11/11 16:40:42;;;;;;;6.07;3.50;;;11.30;99.90;;;;;;20792127;28;20123;-38
2022/11/11 16:50:58;;;;;;;6.25;2.75;;;11.30;99.90;;;;;;20836632;28;20973;-38
2022/11/11 17:01:03;;;;;;;2.85;1.85;;;11.20;99.90;;;;;;20827637;28;20042;-38
2022/11/11 17:11:06;;;;;;;4.20;1.92;;;11.10;99.90;;;;;;20790876;28;20165;-38
2022/11/11 17:21:07;;;;;;;5.50;2.78;;;11.00;99.90;;;;;;20766019;28;20124;-39
2022/11/11 17:31:10;;;;;;;3.95;2.55;;;11.10;99.90;;;;;;20759685;28;20132;-39
2022/11/11 17:41:14;;;;;;;5.60;1.95;;;11.00;99.90;;;;;;20764160;28;20192;-38
2022/11/11 17:51:15;;;;;;;3.38;1.98;;;10.90;99.90;;;;;;20765269;28;20575;-39
2022/11/11 18:01:16;;;;;;;7.45;3.67;;;10.90;99.90;;;;;;20760513;28;20515;-39
2022/11/11 18:11:17;;;;;;;4.18;2.17;;;10.90;99.90;;;;;;20764956;28;20956;-39
2022/11/11 18:21:20;;;;;;;3.33;2.10;;;10.90;99.90;;;;;;20767433;28;20524;-38
2022/11/11 18:31:21;;;;;;;3.58;1.50;;;10.80;99.90;;;;;;20762949;28;20383;-38
2022/11/11 18:41:22;;;;;;;2.13;1.40;;;10.80;99.90;;;;;;20762068;28;20112;-38
2022/11/11 18:51:24;;;;;;;7.90;2.03;;;10.70;99.90;;;;;;20757036;28;20126;-38
2022/11/11 19:01:28;;;;;;;4.75;1.98;;;10.70;99.90;;;;;;20740302;28;20240;-38
2022/11/11 19:11:32;;;;;;;5.25;3.30;;;10.60;99.90;;;;;;20758959;28;20136;-39
2022/11/11 19:21:35;;;;;;;3.53;2.35;;;10.50;99.90;;;;;;20752526;28;20037;-39
2022/11/11 19:31:36;;;;;;;5.57;3.15;;;10.40;99.90;;;;;;20763538;28;20136;-39
2022/11/11 19:41:37;;;;;;;4.15;1.92;;;10.40;99.90;;;;;;20745996;28;20098;-38
2022/11/11 19:51:38;;;;;;;3.85;2.13;;;10.30;99.90;;;;;;20749353;28;20045;-39
2022/11/11 20:01:40;;;;;;;3.47;2.05;;;10.30;99.90;;;;;;20746043;28;20856;-39
2022/11/11 20:11:42;;;;;;;5.55;3.08;;;10.20;99.90;;;;;;20746178;28;20448;-39
2022/11/11 20:21:43;;;;;;;6.57;2.60;;;10.10;99.90;;;;;;20762560;28;20668;-39
2022/11/11 20:31:44;;;;;;;5.35;3.03;;;10.00;99.90;;;;;;20772842;28;20062;-39
2022/11/11 20:41:45;;;;;;;3.75;2.10;;;9.90;99.90;;;;;;20758532;28;20080;-39
2022/11/11 20:51:46;;;;;;;10.10;4.05;;;9.80;99.90;;;;;;20764574;28;20449;-38
2022/11/11 21:01:47;;;;;;;4.80;2.33;;;9.60;99.90;;;;;;20761057;28;20452;-38
2022/11/11 21:11:48;;;;;;;5.15;2.20;;;9.60;99.90;;;;;;20778618;28;20040;-38
2022/11/11 21:21:49;;;;;;;9.00;3.38;;;9.50;99.90;;;;;;20785648;28;20040;-39
2022/11/11 21:31:50;;;;;;;6.75;3.50;;;9.40;99.90;;;;;;20766126;28;20287;-39
2022/11/11 21:41:51;;;;;;;6.10;3.42;;;9.30;99.90;;;;;;20768790;28;20069;-39
2022/11/11 21:51:52;;;;;;;4.32;2.63;;;9.30;99.90;;;;;;20791362;28;20190;-39
2022/11/11 22:01:53;;;;;;;6.03;2.72;;;9.20;99.90;;;;;;20790834;28;20041;-38
2022/11/11 22:11:54;;;;;;;6.00;3.22;;;9.10;99.90;;;;;;20780497;28;20069;-39
2022/11/11 22:21:55;;;;;;;5.07;2.38;;;9.00;99.90;;;;;;20791602;28;20132;-39
2022/11/11 22:31:58;;;;;;;8.65;5.05;;;9.00;99.90;;;;;;20781778;28;20360;-39
2022/11/11 22:41:58;;;;;;;4.93;2.63;;;8.90;99.90;;;;;;20775262;28;20134;-38
2022/11/11 22:51:59;;;;;;;8.32;3.58;;;8.70;99.90;;;;;;20788503;28;20294;-38
2022/11/11 23:02:01;;;;;;;7.68;3.55;;;8.60;99.90;;;;;;20782232;28;20051;-38
2022/11/11 23:12:02;;;;;;;5.75;3.17;;;8.60;99.90;;;;;;20764020;28;20128;-38
2022/11/11 23:22:03;;;;;;;3.85;2.63;;;8.60;99.90;;;;;;20794446;28;20191;-38
2022/11/11 23:32:04;;;;;;;6.93;4.03;;;8.60;99.90;;;;;;20755817;28;20565;-39
2022/11/11 23:42:05;;;;;;;6.60;3.15;;;8.50;99.90;;;;;;20778441;28;20606;-39
2022/11/11 23:52:06;;;;;;;6.88;4.03;;;8.50;99.90;;;;;;20786559;28;20408;-39
